sensor_id;sensor_type;location;lat;lon;timestamp;P1;durP1;ratioP1;P2;durP2;ratioP2
20861;SDS011;10591;52.532;13.348;2023-09-19T00:02:17;6.28;;;3.55;;
20861;SDS011;10591;52.532;13.348;2023-09-19T00:04:47;5.05;;;3.55;;
20861;SDS011;10591;52.532;13.348;2023-09-19T00:07:20;5.62;;;3.40;;
20861;SDS011;10591;52.532;13.348;2023-09-19T00:09:55;4.58;;;3.30;;
20861;SDS011;10591;52.532;13.348;2023-09-19T00:12:29;3.98;;;3.58;;
20861;SDS011;10591;52.532;13.348;2023-09-19T00:15:00;6.22;;;4.15;;
20861;SDS011;10591;52.532;13.348;2023-09-19T00:17:33;7.35;;;3.92;;
20861;SDS011;10591;52.532;13.348;2023-09-19T00:20:06;6.67;;;3.72;;
20861;SDS011;10591;52.532;13.348;2023-09-19T00:22:40;4.17;;;3.17;;
20861;SDS011;10591;52.532;13.348;2023-09-19T00:25:11;6.62;;;3.65;;
20861;SDS011;10591;52.532;13.348;2023-09-19T00:27:44;6.65;;;4.47;;
20861;SDS011;10591;52.532;13.348;2023-09-19T00:30:17;4.87;;;3.20;;
20861;SDS011;10591;52.532;13.348;2023-09-19T00:32:52;4.97;;;3.52;;
20861;SDS011;10591;52.532;13.348;2023-09-19T00:35:25;3.87;;;3.50;;
20861;SDS011;10591;52.532;13.348;2023-09-19T00:37:57;4.72;;;2.80;;
20861;SDS011;10591;52.532;13.348;2023-09-19T00:40:28;6.80;;;4.05;;
20861;SDS011;10591;52.532;13.348;2023-09-19T00:42:59;6.90;;;3.75;;
20861;SDS011;10591;52.532;13.348;2023-09-19T00:45:30;5.15;;;3.55;;
20861;SDS011;10591;52.532;13.348;2023-09-19T00:48:01;3.87;;;3.22;;
20861;SDS011;10591;52.532;13.348;2023-09-19T00:50:33;4.67;;;4.03;;
20861;SDS011;10591;52.532;13.348;2023-09-19T00:53:04;4.90;;;3.75;;
20861;SDS011;10591;52.532;13.348;2023-09-19T00:55:38;6.72;;;4.05;;
20861;SDS011;10591;52.532;13.348;2023-09-19T00:58:11;3.30;;;2.98;;
20861;SDS011;10591;52.532;13.348;2023-09-19T01:00:42;5.92;;;3.75;;
20861;SDS011;10591;52.532;13.348;2023-09-19T01:03:16;6.85;;;4.22;;
20861;SDS011;10591;52.532;13.348;2023-09-19T01:05:47;6.65;;;4.83;;
20861;SDS011;10591;52.532;13.348;2023-09-19T01:08:19;7.17;;;4.12;;
20861;SDS011;10591;52.532;13.348;2023-09-19T01:10:54;8.28;;;4.90;;
20861;SDS011;10591;52.532;13.348;2023-09-19T01:13:48;6.87;;;3.98;;
20861;SDS011;10591;52.532;13.348;2023-09-19T01:19:26;7.00;;;4.83;;
20861;SDS011;10591;52.532;13.348;2023-09-19T01:22:16;6.65;;;4.85;;
20861;SDS011;10591;52.532;13.348;2023-09-19T01:24:55;4.60;;;3.62;;
20861;SDS011;10591;52.532;13.348;2023-09-19T01:30:32;7.35;;;4.37;;
20861;SDS011;10591;52.532;13.348;2023-09-19T01:33:04;6.70;;;4.22;;
20861;SDS011;10591;52.532;13.348;2023-09-19T01:35:39;5.90;;;3.90;;
20861;SDS011;10591;52.532;13.348;2023-09-19T01:38:10;7.60;;;3.85;;
20861;SDS011;10591;52.532;13.348;2023-09-19T01:40:42;6.33;;;3.92;;
20861;SDS011;10591;52.532;13.348;2023-09-19T01:43:35;8.35;;;6.10;;
20861;SDS011;10591;52.532;13.348;2023-09-19T01:52:04;7.75;;;4.58;;
20861;SDS011;10591;52.532;13.348;2023-09-19T01:54:40;8.18;;;4.53;;
20861;SDS011;10591;52.532;13.348;2023-09-19T02:00:06;9.50;;;4.58;;
20861;SDS011;10591;52.532;13.348;2023-09-19T02:02:39;14.58;;;4.70;;
20861;SDS011;10591;52.532;13.348;2023-09-19T02:05:13;9.45;;;5.05;;
20861;SDS011;10591;52.532;13.348;2023-09-19T02:07:53;9.23;;;4.60;;
20861;SDS011;10591;52.532;13.348;2023-09-19T02:10:24;11.33;;;5.22;;
20861;SDS011;10591;52.532;13.348;2023-09-19T02:12:55;6.95;;;4.42;;
20861;SDS011;10591;52.532;13.348;2023-09-19T02:15:25;6.70;;;3.98;;
20861;SDS011;10591;52.532;13.348;2023-09-19T02:17:56;9.20;;;4.53;;
20861;SDS011;10591;52.532;13.348;2023-09-19T02:20:28;13.45;;;5.87;;
20861;SDS011;10591;52.532;13.348;2023-09-19T02:22:59;9.23;;;4.58;;
20861;SDS011;10591;52.532;13.348;2023-09-19T02:25:31;10.13;;;5.00;;
20861;SDS011;10591;52.532;13.348;2023-09-19T02:28:02;10.80;;;5.12;;
20861;SDS011;10591;52.532;13.348;2023-09-19T02:30:34;17.55;;;6.28;;
20861;SDS011;10591;52.532;13.348;2023-09-19T02:33:06;6.85;;;3.95;;
20861;SDS011;10591;52.532;13.348;2023-09-19T02:35:37;8.38;;;4.37;;
20861;SDS011;10591;52.532;13.348;2023-09-19T02:38:08;9.00;;;4.35;;
20861;SDS011;10591;52.532;13.348;2023-09-19T02:40:40;9.15;;;4.75;;
20861;SDS011;10591;52.532;13.348;2023-09-19T02:43:12;8.40;;;4.25;;
20861;SDS011;10591;52.532;13.348;2023-09-19T02:45:42;7.72;;;4.67;;
20861;SDS011;10591;52.532;13.348;2023-09-19T02:48:13;8.98;;;4.85;;
20861;SDS011;10591;52.532;13.348;2023-09-19T02:50:44;9.83;;;4.78;;
20861;SDS011;10591;52.532;13.348;2023-09-19T02:53:16;6.62;;;4.03;;
20861;SDS011;10591;52.532;13.348;2023-09-19T02:55:47;7.35;;;4.45;;
20861;SDS011;10591;52.532;13.348;2023-09-19T02:58:18;9.68;;;5.30;;
20861;SDS011;10591;52.532;13.348;2023-09-19T03:00:49;7.40;;;4.35;;
20861;SDS011;10591;52.532;13.348;2023-09-19T03:03:20;9.28;;;4.97;;
20861;SDS011;10591;52.532;13.348;2023-09-19T03:05:52;6.42;;;4.30;;
20861;SDS011;10591;52.532;13.348;2023-09-19T03:08:24;9.13;;;4.90;;
20861;SDS011;10591;52.532;13.348;2023-09-19T03:10:55;8.18;;;4.47;;
20861;SDS011;10591;52.532;13.348;2023-09-19T03:13:26;7.33;;;3.95;;
20861;SDS011;10591;52.532;13.348;2023-09-19T03:15:58;8.48;;;4.40;;
20861;SDS011;10591;52.532;13.348;2023-09-19T03:18:29;8.38;;;4.25;;
20861;SDS011;10591;52.532;13.348;2023-09-19T03:21:00;6.78;;;3.87;;
20861;SDS011;10591;52.532;13.348;2023-09-19T03:23:31;8.85;;;4.53;;
20861;SDS011;10591;52.532;13.348;2023-09-19T03:26:03;6.53;;;3.92;;
20861;SDS011;10591;52.532;13.348;2023-09-19T03:28:36;7.17;;;4.50;;
20861;SDS011;10591;52.532;13.348;2023-09-19T03:31:08;6.85;;;3.87;;
20861;SDS011;10591;52.532;13.348;2023-09-19T03:33:40;7.28;;;3.67;;
20861;SDS011;10591;52.532;13.348;2023-09-19T03:36:10;6.22;;;3.92;;
20861;SDS011;10591;52.532;13.348;2023-09-19T03:38:42;8.45;;;3.75;;
20861;SDS011;10591;52.532;13.348;2023-09-19T03:41:12;6.53;;;3.30;;
20861;SDS011;10591;52.532;13.348;2023-09-19T03:43:46;7.92;;;3.17;;
20861;SDS011;10591;52.532;13.348;2023-09-19T03:46:18;7.50;;;3.35;;
20861;SDS011;10591;52.532;13.348;2023-09-19T03:48:49;6.42;;;3.42;;
20861;SDS011;10591;52.532;13.348;2023-09-19T03:51:20;6.58;;;2.87;;
20861;SDS011;10591;52.532;13.348;2023-09-19T03:53:50;6.37;;;3.45;;
20861;SDS011;10591;52.532;13.348;2023-09-19T03:56:21;8.60;;;3.92;;
20861;SDS011;10591;52.532;13.348;2023-09-19T03:58:52;9.10;;;3.83;;
20861;SDS011;10591;52.532;13.348;2023-09-19T04:01:22;8.53;;;3.55;;
20861;SDS011;10591;52.532;13.348;2023-09-19T04:03:53;7.58;;;3.87;;
20861;SDS011;10591;52.532;13.348;2023-09-19T04:06:25;10.82;;;4.35;;
20861;SDS011;10591;52.532;13.348;2023-09-19T04:08:57;7.00;;;3.27;;
20861;SDS011;10591;52.532;13.348;2023-09-19T04:11:28;8.73;;;4.33;;
20861;SDS011;10591;52.532;13.348;2023-09-19T04:14:02;8.30;;;3.98;;
20861;SDS011;10591;52.532;13.348;2023-09-19T04:16:33;5.78;;;3.62;;
20861;SDS011;10591;52.532;13.348;2023-09-19T04:19:05;5.70;;;3.55;;
20861;SDS011;10591;52.532;13.348;2023-09-19T04:21:38;5.15;;;3.40;;
20861;SDS011;10591;52.532;13.348;2023-09-19T04:24:09;6.33;;;3.22;;
20861;SDS011;10591;52.532;13.348;2023-09-19T04:26:42;4.80;;;3.22;;
20861;SDS011;10591;52.532;13.348;2023-09-19T04:29:12;4.28;;;3.08;;
20861;SDS011;10591;52.532;13.348;2023-09-19T04:31:43;5.03;;;3.20;;
20861;SDS011;10591;52.532;13.348;2023-09-19T04:34:14;4.87;;;2.83;;
20861;SDS011;10591;52.532;13.348;2023-09-19T04:36:46;5.35;;;3.02;;
20861;SDS011;10591;52.532;13.348;2023-09-19T04:39:17;5.33;;;3.37;;
20861;SDS011;10591;52.532;13.348;2023-09-19T04:41:47;5.08;;;3.40;;
20861;SDS011;10591;52.532;13.348;2023-09-19T04:44:18;4.53;;;3.55;;
20861;SDS011;10591;52.532;13.348;2023-09-19T04:46:49;4.08;;;3.12;;
20861;SDS011;10591;52.532;13.348;2023-09-19T04:49:20;3.85;;;3.20;;
20861;SDS011;10591;52.532;13.348;2023-09-19T04:51:50;5.08;;;3.22;;
20861;SDS011;10591;52.532;13.348;2023-09-19T04:54:22;5.67;;;3.50;;
20861;SDS011;10591;52.532;13.348;2023-09-19T04:56:56;4.75;;;3.35;;
20861;SDS011;10591;52.532;13.348;2023-09-19T04:59:27;3.67;;;3.00;;
20861;SDS011;10591;52.532;13.348;2023-09-19T05:01:58;6.87;;;4.00;;
20861;SDS011;10591;52.532;13.348;2023-09-19T05:04:30;4.72;;;3.40;;
20861;SDS011;10591;52.532;13.348;2023-09-19T05:07:01;5.47;;;3.90;;
20861;SDS011;10591;52.532;13.348;2023-09-19T05:09:32;7.45;;;3.98;;
20861;SDS011;10591;52.532;13.348;2023-09-19T05:12:03;4.25;;;3.12;;
20861;SDS011;10591;52.532;13.348;2023-09-19T05:14:34;3.80;;;3.10;;
20861;SDS011;10591;52.532;13.348;2023-09-19T05:17:06;3.95;;;3.25;;
20861;SDS011;10591;52.532;13.348;2023-09-19T05:19:37;5.30;;;3.30;;
20861;SDS011;10591;52.532;13.348;2023-09-19T05:22:07;5.78;;;3.55;;
20861;SDS011;10591;52.532;13.348;2023-09-19T05:24:38;6.03;;;3.75;;
20861;SDS011;10591;52.532;13.348;2023-09-19T05:27:08;5.42;;;3.98;;
20861;SDS011;10591;52.532;13.348;2023-09-19T05:29:39;5.65;;;3.80;;
20861;SDS011;10591;52.532;13.348;2023-09-19T05:32:11;4.70;;;3.25;;
20861;SDS011;10591;52.532;13.348;2023-09-19T05:34:42;8.05;;;4.08;;
20861;SDS011;10591;52.532;13.348;2023-09-19T05:37:13;7.78;;;3.67;;
20861;SDS011;10591;52.532;13.348;2023-09-19T05:39:45;6.85;;;3.60;;
20861;SDS011;10591;52.532;13.348;2023-09-19T05:42:15;7.17;;;4.35;;
20861;SDS011;10591;52.532;13.348;2023-09-19T05:44:46;7.62;;;3.95;;
20861;SDS011;10591;52.532;13.348;2023-09-19T05:47:16;8.65;;;3.85;;
20861;SDS011;10591;52.532;13.348;2023-09-19T05:49:47;5.55;;;3.45;;
20861;SDS011;10591;52.532;13.348;2023-09-19T05:52:19;6.72;;;4.00;;
20861;SDS011;10591;52.532;13.348;2023-09-19T05:54:51;5.40;;;3.12;;
20861;SDS011;10591;52.532;13.348;2023-09-19T05:57:22;3.90;;;3.47;;
20861;SDS011;10591;52.532;13.348;2023-09-19T05:59:53;6.80;;;3.72;;
20861;SDS011;10591;52.532;13.348;2023-09-19T06:02:24;5.03;;;3.75;;
20861;SDS011;10591;52.532;13.348;2023-09-19T06:04:56;4.70;;;3.25;;
20861;SDS011;10591;52.532;13.348;2023-09-19T06:07:28;4.50;;;3.42;;
20861;SDS011;10591;52.532;13.348;2023-09-19T06:10:00;4.67;;;3.55;;
20861;SDS011;10591;52.532;13.348;2023-09-19T06:12:31;8.30;;;3.60;;
20861;SDS011;10591;52.532;13.348;2023-09-19T06:15:08;5.90;;;3.70;;
20861;SDS011;10591;52.532;13.348;2023-09-19T06:17:46;7.97;;;3.95;;
20861;SDS011;10591;52.532;13.348;2023-09-19T06:20:26;7.92;;;4.22;;
20861;SDS011;10591;52.532;13.348;2023-09-19T06:22:57;7.12;;;3.95;;
20861;SDS011;10591;52.532;13.348;2023-09-19T06:25:28;4.55;;;3.15;;
20861;SDS011;10591;52.532;13.348;2023-09-19T06:27:58;6.08;;;3.80;;
20861;SDS011;10591;52.532;13.348;2023-09-19T06:30:31;10.63;;;4.30;;
20861;SDS011;10591;52.532;13.348;2023-09-19T06:33:01;8.38;;;3.67;;
20861;SDS011;10591;52.532;13.348;2023-09-19T06:35:33;8.70;;;4.37;;
20861;SDS011;10591;52.532;13.348;2023-09-19T06:38:04;7.70;;;4.17;;
20861;SDS011;10591;52.532;13.348;2023-09-19T06:40:36;9.00;;;4.60;;
20861;SDS011;10591;52.532;13.348;2023-09-19T06:43:06;8.18;;;3.92;;
20861;SDS011;10591;52.532;13.348;2023-09-19T06:45:37;6.40;;;4.10;;
20861;SDS011;10591;52.532;13.348;2023-09-19T06:48:08;12.65;;;5.37;;
20861;SDS011;10591;52.532;13.348;2023-09-19T06:50:39;6.75;;;3.90;;
20861;SDS011;10591;52.532;13.348;2023-09-19T06:53:10;5.33;;;3.15;;
20861;SDS011;10591;52.532;13.348;2023-09-19T06:55:41;6.05;;;3.30;;
20861;SDS011;10591;52.532;13.348;2023-09-19T06:58:12;7.28;;;4.25;;
20861;SDS011;10591;52.532;13.348;2023-09-19T07:00:45;12.78;;;5.28;;
20861;SDS011;10591;52.532;13.348;2023-09-19T07:03:16;7.67;;;4.08;;
20861;SDS011;10591;52.532;13.348;2023-09-19T07:05:48;8.05;;;4.08;;
20861;SDS011;10591;52.532;13.348;2023-09-19T07:08:19;7.55;;;3.25;;
20861;SDS011;10591;52.532;13.348;2023-09-19T07:10:50;4.03;;;3.20;;
20861;SDS011;10591;52.532;13.348;2023-09-19T07:13:21;4.47;;;3.45;;
20861;SDS011;10591;52.532;13.348;2023-09-19T07:15:53;7.85;;;4.33;;
20861;SDS011;10591;52.532;13.348;2023-09-19T07:18:24;12.23;;;4.80;;
20861;SDS011;10591;52.532;13.348;2023-09-19T07:20:57;7.25;;;4.33;;
20861;SDS011;10591;52.532;13.348;2023-09-19T07:23:30;8.18;;;3.47;;
20861;SDS011;10591;52.532;13.348;2023-09-19T07:26:02;7.65;;;3.95;;
20861;SDS011;10591;52.532;13.348;2023-09-19T07:28:37;8.83;;;3.62;;
20861;SDS011;10591;52.532;13.348;2023-09-19T07:31:11;9.53;;;4.85;;
20861;SDS011;10591;52.532;13.348;2023-09-19T07:33:43;5.30;;;3.17;;
20861;SDS011;10591;52.532;13.348;2023-09-19T07:36:15;10.55;;;4.03;;
20861;SDS011;10591;52.532;13.348;2023-09-19T07:38:50;7.25;;;3.95;;
20861;SDS011;10591;52.532;13.348;2023-09-19T07:41:20;8.60;;;4.58;;
20861;SDS011;10591;52.532;13.348;2023-09-19T07:43:51;8.08;;;4.25;;
20861;SDS011;10591;52.532;13.348;2023-09-19T07:46:27;9.58;;;4.22;;
20861;SDS011;10591;52.532;13.348;2023-09-19T07:49:00;5.08;;;3.60;;
20861;SDS011;10591;52.532;13.348;2023-09-19T07:51:33;7.78;;;3.95;;
20861;SDS011;10591;52.532;13.348;2023-09-19T07:54:06;5.12;;;4.03;;
20861;SDS011;10591;52.532;13.348;2023-09-19T07:56:40;5.60;;;4.25;;
20861;SDS011;10591;52.532;13.348;2023-09-19T07:59:11;6.35;;;4.03;;
20861;SDS011;10591;52.532;13.348;2023-09-19T08:01:42;6.08;;;4.05;;
20861;SDS011;10591;52.532;13.348;2023-09-19T08:04:13;4.37;;;3.60;;
20861;SDS011;10591;52.532;13.348;2023-09-19T08:06:47;7.40;;;4.65;;
20861;SDS011;10591;52.532;13.348;2023-09-19T08:09:19;7.37;;;4.10;;
20861;SDS011;10591;52.532;13.348;2023-09-19T08:11:52;6.40;;;3.47;;
20861;SDS011;10591;52.532;13.348;2023-09-19T08:14:25;6.83;;;4.12;;
20861;SDS011;10591;52.532;13.348;2023-09-19T08:16:59;7.85;;;4.03;;
20861;SDS011;10591;52.532;13.348;2023-09-19T08:19:30;6.28;;;3.80;;
20861;SDS011;10591;52.532;13.348;2023-09-19T08:22:03;4.62;;;3.95;;
20861;SDS011;10591;52.532;13.348;2023-09-19T08:24:34;6.67;;;4.00;;
20861;SDS011;10591;52.532;13.348;2023-09-19T08:27:04;4.20;;;3.47;;
20861;SDS011;10591;52.532;13.348;2023-09-19T08:29:38;5.62;;;4.05;;
20861;SDS011;10591;52.532;13.348;2023-09-19T08:32:12;8.58;;;4.37;;
20861;SDS011;10591;52.532;13.348;2023-09-19T08:34:48;5.55;;;3.67;;
20861;SDS011;10591;52.532;13.348;2023-09-19T08:37:19;4.53;;;3.80;;
20861;SDS011;10591;52.532;13.348;2023-09-19T08:39:50;6.62;;;4.20;;
20861;SDS011;10591;52.532;13.348;2023-09-19T08:42:22;7.37;;;4.53;;
20861;SDS011;10591;52.532;13.348;2023-09-19T08:44:55;6.25;;;4.10;;
20861;SDS011;10591;52.532;13.348;2023-09-19T08:47:34;6.45;;;4.00;;
20861;SDS011;10591;52.532;13.348;2023-09-19T08:50:10;6.87;;;4.55;;
20861;SDS011;10591;52.532;13.348;2023-09-19T08:52:48;6.12;;;4.28;;
20861;SDS011;10591;52.532;13.348;2023-09-19T08:55:28;7.03;;;3.98;;
20861;SDS011;10591;52.532;13.348;2023-09-19T08:58:10;6.20;;;4.37;;
20861;SDS011;10591;52.532;13.348;2023-09-19T09:00:36;6.85;;;4.45;;
20861;SDS011;10591;52.532;13.348;2023-09-19T09:03:09;5.60;;;4.10;;
20861;SDS011;10591;52.532;13.348;2023-09-19T09:05:41;6.20;;;3.87;;
20861;SDS011;10591;52.532;13.348;2023-09-19T09:08:19;4.55;;;3.50;;
20861;SDS011;10591;52.532;13.348;2023-09-19T09:10:50;6.78;;;4.28;;
20861;SDS011;10591;52.532;13.348;2023-09-19T09:13:21;7.62;;;4.30;;
20861;SDS011;10591;52.532;13.348;2023-09-19T09:15:53;7.62;;;4.15;;
20861;SDS011;10591;52.532;13.348;2023-09-19T09:18:26;7.40;;;4.20;;
20861;SDS011;10591;52.532;13.348;2023-09-19T09:20:59;5.67;;;3.80;;
20861;SDS011;10591;52.532;13.348;2023-09-19T09:23:30;6.92;;;3.58;;
20861;SDS011;10591;52.532;13.348;2023-09-19T09:26:01;4.92;;;3.27;;
20861;SDS011;10591;52.532;13.348;2023-09-19T09:28:33;7.28;;;4.20;;
20861;SDS011;10591;52.532;13.348;2023-09-19T09:31:06;7.05;;;3.77;;
20861;SDS011;10591;52.532;13.348;2023-09-19T09:33:42;7.95;;;4.12;;
20861;SDS011;10591;52.532;13.348;2023-09-19T09:36:17;4.87;;;4.08;;
20861;SDS011;10591;52.532;13.348;2023-09-19T09:38:51;7.90;;;4.58;;
20861;SDS011;10591;52.532;13.348;2023-09-19T09:41:28;6.15;;;4.80;;
20861;SDS011;10591;52.532;13.348;2023-09-19T09:43:58;8.10;;;4.40;;
20861;SDS011;10591;52.532;13.348;2023-09-19T09:46:33;9.48;;;4.72;;
20861;SDS011;10591;52.532;13.348;2023-09-19T09:49:24;9.53;;;5.22;;
20861;SDS011;10591;52.532;13.348;2023-09-19T09:52:04;7.83;;;4.45;;
20861;SDS011;10591;52.532;13.348;2023-09-19T09:54:40;7.17;;;4.50;;
20861;SDS011;10591;52.532;13.348;2023-09-19T09:57:36;7.72;;;4.05;;
20861;SDS011;10591;52.532;13.348;2023-09-19T10:00:09;9.50;;;5.05;;
20861;SDS011;10591;52.532;13.348;2023-09-19T10:02:43;6.53;;;4.45;;
20861;SDS011;10591;52.532;13.348;2023-09-19T10:05:18;5.60;;;4.00;;
20861;SDS011;10591;52.532;13.348;2023-09-19T10:07:51;10.05;;;4.58;;
20861;SDS011;10591;52.532;13.348;2023-09-19T10:13:14;7.00;;;4.42;;
20861;SDS011;10591;52.532;13.348;2023-09-19T10:15:48;6.35;;;3.98;;
20861;SDS011;10591;52.532;13.348;2023-09-19T10:18:27;8.08;;;4.42;;
20861;SDS011;10591;52.532;13.348;2023-09-19T10:21:00;7.40;;;4.03;;
20861;SDS011;10591;52.532;13.348;2023-09-19T10:23:35;9.23;;;4.72;;
20861;SDS011;10591;52.532;13.348;2023-09-19T10:26:06;6.33;;;3.83;;
20861;SDS011;10591;52.532;13.348;2023-09-19T10:28:38;8.83;;;4.22;;
20861;SDS011;10591;52.532;13.348;2023-09-19T10:31:11;12.40;;;4.85;;
20861;SDS011;10591;52.532;13.348;2023-09-19T10:33:43;5.87;;;4.00;;
20861;SDS011;10591;52.532;13.348;2023-09-19T10:36:16;6.58;;;3.83;;
20861;SDS011;10591;52.532;13.348;2023-09-19T10:38:47;6.37;;;3.55;;
20861;SDS011;10591;52.532;13.348;2023-09-19T10:41:24;5.33;;;3.42;;
20861;SDS011;10591;52.532;13.348;2023-09-19T10:44:02;6.80;;;3.37;;
20861;SDS011;10591;52.532;13.348;2023-09-19T10:46:34;7.50;;;3.62;;
20861;SDS011;10591;52.532;13.348;2023-09-19T10:49:07;7.67;;;3.70;;
20861;SDS011;10591;52.532;13.348;2023-09-19T10:51:41;6.03;;;3.83;;
20861;SDS011;10591;52.532;13.348;2023-09-19T10:54:15;7.17;;;4.12;;
20861;SDS011;10591;52.532;13.348;2023-09-19T10:56:53;6.08;;;3.70;;
20861;SDS011;10591;52.532;13.348;2023-09-19T10:59:26;7.05;;;3.75;;
20861;SDS011;10591;52.532;13.348;2023-09-19T11:02:02;6.05;;;3.52;;
20861;SDS011;10591;52.532;13.348;2023-09-19T11:04:48;6.85;;;3.95;;
20861;SDS011;10591;52.532;13.348;2023-09-19T11:07:19;8.80;;;4.03;;
20861;SDS011;10591;52.532;13.348;2023-09-19T11:09:51;5.72;;;3.12;;
20861;SDS011;10591;52.532;13.348;2023-09-19T11:15:07;7.58;;;3.75;;
20861;SDS011;10591;52.532;13.348;2023-09-19T11:17:43;7.75;;;3.75;;
20861;SDS011;10591;52.532;13.348;2023-09-19T11:20:17;5.78;;;3.37;;
20861;SDS011;10591;52.532;13.348;2023-09-19T11:25:49;6.33;;;3.35;;
20861;SDS011;10591;52.532;13.348;2023-09-19T11:33:38;7.37;;;3.80;;
20861;SDS011;10591;52.532;13.348;2023-09-19T11:36:13;8.30;;;3.92;;
20861;SDS011;10591;52.532;13.348;2023-09-19T11:46:34;6.62;;;3.50;;
20861;SDS011;10591;52.532;13.348;2023-09-19T11:49:28;5.37;;;2.95;;
20861;SDS011;10591;52.532;13.348;2023-09-19T11:52:05;5.58;;;3.20;;
20861;SDS011;10591;52.532;13.348;2023-09-19T11:54:37;6.95;;;3.22;;
20861;SDS011;10591;52.532;13.348;2023-09-19T11:57:11;5.87;;;3.27;;
20861;SDS011;10591;52.532;13.348;2023-09-19T11:59:48;7.60;;;3.45;;
20861;SDS011;10591;52.532;13.348;2023-09-19T12:02:39;5.58;;;3.58;;
20861;SDS011;10591;52.532;13.348;2023-09-19T12:05:07;4.50;;;2.95;;
20861;SDS011;10591;52.532;13.348;2023-09-19T12:07:48;8.15;;;3.00;;
20861;SDS011;10591;52.532;13.348;2023-09-19T12:10:16;5.12;;;3.25;;
20861;SDS011;10591;52.532;13.348;2023-09-19T12:12:49;6.20;;;3.40;;
20861;SDS011;10591;52.532;13.348;2023-09-19T12:15:25;6.25;;;3.33;;
20861;SDS011;10591;52.532;13.348;2023-09-19T12:17:59;5.75;;;3.05;;
20861;SDS011;10591;52.532;13.348;2023-09-19T12:20:43;6.40;;;3.70;;
20861;SDS011;10591;52.532;13.348;2023-09-19T12:23:18;4.83;;;3.05;;
20861;SDS011;10591;52.532;13.348;2023-09-19T12:25:49;7.03;;;3.12;;
20861;SDS011;10591;52.532;13.348;2023-09-19T12:28:22;6.33;;;2.80;;
20861;SDS011;10591;52.532;13.348;2023-09-19T12:31:06;5.37;;;3.37;;
20861;SDS011;10591;52.532;13.348;2023-09-19T12:33:38;3.75;;;3.00;;
20861;SDS011;10591;52.532;13.348;2023-09-19T12:36:21;6.42;;;3.67;;
20861;SDS011;10591;52.532;13.348;2023-09-19T12:38:54;7.75;;;3.52;;
20861;SDS011;10591;52.532;13.348;2023-09-19T12:41:27;7.30;;;3.30;;
20861;SDS011;10591;52.532;13.348;2023-09-19T12:43:58;6.47;;;2.77;;
20861;SDS011;10591;52.532;13.348;2023-09-19T12:46:30;5.60;;;3.22;;
20861;SDS011;10591;52.532;13.348;2023-09-19T12:49:18;5.45;;;3.00;;
20861;SDS011;10591;52.532;13.348;2023-09-19T12:51:47;6.70;;;3.27;;
20861;SDS011;10591;52.532;13.348;2023-09-19T12:54:18;6.08;;;3.30;;
20861;SDS011;10591;52.532;13.348;2023-09-19T12:56:51;4.47;;;2.50;;
20861;SDS011;10591;52.532;13.348;2023-09-19T12:59:28;4.20;;;2.70;;
20861;SDS011;10591;52.532;13.348;2023-09-19T13:02:04;6.75;;;3.17;;
20861;SDS011;10591;52.532;13.348;2023-09-19T13:04:36;5.95;;;2.70;;
20861;SDS011;10591;52.532;13.348;2023-09-19T13:07:39;3.95;;;2.75;;
20861;SDS011;10591;52.532;13.348;2023-09-19T13:10:01;4.92;;;2.75;;
20861;SDS011;10591;52.532;13.348;2023-09-19T13:12:36;7.75;;;3.20;;
20861;SDS011;10591;52.532;13.348;2023-09-19T13:15:10;5.42;;;3.40;;
20861;SDS011;10591;52.532;13.348;2023-09-19T13:17:47;3.52;;;2.52;;
20861;SDS011;10591;52.532;13.348;2023-09-19T13:20:22;6.55;;;3.77;;
20861;SDS011;10591;52.532;13.348;2023-09-19T13:22:56;5.35;;;2.92;;
20861;SDS011;10591;52.532;13.348;2023-09-19T13:25:30;3.87;;;2.70;;
20861;SDS011;10591;52.532;13.348;2023-09-19T13:28:04;5.45;;;2.87;;
20861;SDS011;10591;52.532;13.348;2023-09-19T13:30:36;6.15;;;3.10;;
20861;SDS011;10591;52.532;13.348;2023-09-19T13:33:14;5.15;;;2.50;;
20861;SDS011;10591;52.532;13.348;2023-09-19T13:35:46;5.00;;;3.08;;
20861;SDS011;10591;52.532;13.348;2023-09-19T13:38:17;4.15;;;3.05;;
20861;SDS011;10591;52.532;13.348;2023-09-19T13:40:49;5.42;;;2.62;;
20861;SDS011;10591;52.532;13.348;2023-09-19T13:43:23;4.53;;;2.77;;
20861;SDS011;10591;52.532;13.348;2023-09-19T13:45:54;5.90;;;2.62;;
20861;SDS011;10591;52.532;13.348;2023-09-19T13:48:26;7.00;;;4.15;;
20861;SDS011;10591;52.532;13.348;2023-09-19T13:50:58;5.17;;;2.72;;
20861;SDS011;10591;52.532;13.348;2023-09-19T13:53:30;5.40;;;2.83;;
20861;SDS011;10591;52.532;13.348;2023-09-19T13:56:01;7.87;;;2.70;;
20861;SDS011;10591;52.532;13.348;2023-09-19T13:58:32;10.05;;;3.40;;
20861;SDS011;10591;52.532;13.348;2023-09-19T14:01:03;10.93;;;3.90;;
20861;SDS011;10591;52.532;13.348;2023-09-19T14:03:33;5.20;;;3.00;;
20861;SDS011;10591;52.532;13.348;2023-09-19T14:06:05;4.58;;;2.65;;
20861;SDS011;10591;52.532;13.348;2023-09-19T14:08:38;4.90;;;3.05;;
20861;SDS011;10591;52.532;13.348;2023-09-19T14:11:12;4.45;;;3.10;;
20861;SDS011;10591;52.532;13.348;2023-09-19T14:13:46;4.70;;;3.22;;
20861;SDS011;10591;52.532;13.348;2023-09-19T14:16:22;4.90;;;3.10;;
20861;SDS011;10591;52.532;13.348;2023-09-19T14:18:55;4.87;;;3.25;;
20861;SDS011;10591;52.532;13.348;2023-09-19T14:21:33;3.37;;;3.00;;
20861;SDS011;10591;52.532;13.348;2023-09-19T14:24:05;4.33;;;2.95;;
20861;SDS011;10591;52.532;13.348;2023-09-19T14:26:38;4.25;;;3.22;;
20861;SDS011;10591;52.532;13.348;2023-09-19T14:29:09;6.92;;;3.33;;
20861;SDS011;10591;52.532;13.348;2023-09-19T14:31:41;5.85;;;3.60;;
20861;SDS011;10591;52.532;13.348;2023-09-19T14:34:14;8.20;;;3.60;;
20861;SDS011;10591;52.532;13.348;2023-09-19T14:36:45;6.22;;;4.42;;
20861;SDS011;10591;52.532;13.348;2023-09-19T14:39:18;4.92;;;3.15;;
20861;SDS011;10591;52.532;13.348;2023-09-19T14:41:51;7.08;;;3.37;;
20861;SDS011;10591;52.532;13.348;2023-09-19T14:44:22;5.75;;;3.60;;
20861;SDS011;10591;52.532;13.348;2023-09-19T14:46:54;5.08;;;3.30;;
20861;SDS011;10591;52.532;13.348;2023-09-19T14:49:25;9.05;;;3.92;;
20861;SDS011;10591;52.532;13.348;2023-09-19T14:51:59;4.78;;;3.08;;
20861;SDS011;10591;52.532;13.348;2023-09-19T14:54:36;7.25;;;3.83;;
20861;SDS011;10591;52.532;13.348;2023-09-19T14:57:09;5.78;;;3.77;;
20861;SDS011;10591;52.532;13.348;2023-09-19T14:59:41;4.90;;;2.87;;
20861;SDS011;10591;52.532;13.348;2023-09-19T15:02:14;4.90;;;3.00;;
20861;SDS011;10591;52.532;13.348;2023-09-19T15:04:46;6.97;;;3.58;;
20861;SDS011;10591;52.532;13.348;2023-09-19T15:07:20;5.87;;;3.37;;
20861;SDS011;10591;52.532;13.348;2023-09-19T15:09:50;5.00;;;3.52;;
20861;SDS011;10591;52.532;13.348;2023-09-19T15:12:21;4.95;;;3.10;;
20861;SDS011;10591;52.532;13.348;2023-09-19T15:14:51;6.40;;;3.80;;
20861;SDS011;10591;52.532;13.348;2023-09-19T15:17:23;6.58;;;3.45;;
20861;SDS011;10591;52.532;13.348;2023-09-19T15:19:56;6.87;;;3.25;;
20861;SDS011;10591;52.532;13.348;2023-09-19T15:22:35;5.90;;;3.15;;
20861;SDS011;10591;52.532;13.348;2023-09-19T15:25:09;7.08;;;3.50;;
20861;SDS011;10591;52.532;13.348;2023-09-19T15:27:41;6.30;;;3.45;;
20861;SDS011;10591;52.532;13.348;2023-09-19T15:30:13;7.30;;;3.85;;
20861;SDS011;10591;52.532;13.348;2023-09-19T15:32:44;7.47;;;4.05;;
20861;SDS011;10591;52.532;13.348;2023-09-19T15:35:17;8.63;;;3.70;;
20861;SDS011;10591;52.532;13.348;2023-09-19T15:37:47;6.65;;;3.80;;
20861;SDS011;10591;52.532;13.348;2023-09-19T15:40:21;7.00;;;3.47;;
20861;SDS011;10591;52.532;13.348;2023-09-19T15:42:54;8.40;;;3.72;;
20861;SDS011;10591;52.532;13.348;2023-09-19T15:45:29;7.53;;;3.80;;